sensor_id;sensor_type;location;lat;lon;timestamp;temperature;humidity
77247;SHT35;66279;42.820;23.374;2023-04-25T05:56:59;11.87;86.29
77247;SHT35;66279;42.820;23.374;2023-04-25T05:59:25;11.93;86.15
77247;SHT35;66279;42.820;23.374;2023-04-25T06:01:50;11.96;86.68
77247;SHT35;66279;42.820;23.374;2023-04-25T06:04:16;12.02;86.45
77247;SHT35;66279;42.820;23.374;2023-04-25T06:06:42;12.12;85.71
77247;SHT35;66279;42.820;23.374;2023-04-25T06:09:07;12.21;84.77
77247;SHT35;66279;42.820;23.374;2023-04-25T06:11:33;12.34;84.73
77247;SHT35;66279;42.820;23.374;2023-04-25T06:13:58;12.34;84.08
77247;SHT35;66279;42.820;23.374;2023-04-25T06:16:24;12.41;84.23
77247;SHT35;66279;42.820;23.374;2023-04-25T08:08:56;15.83;69.94
77247;SHT35;66279;42.820;23.374;2023-04-25T08:11:21;15.70;69.79
77247;SHT35;66279;42.820;23.374;2023-04-25T08:13:47;15.78;69.29
77247;SHT35;66279;42.820;23.374;2023-04-25T08:16:12;15.82;72.07
77247;SHT35;66279;42.820;23.374;2023-04-25T08:18:38;15.90;69.96
77247;SHT35;66279;42.820;23.374;2023-04-25T08:21:03;15.82;70.53
77247;SHT35;66279;42.820;23.374;2023-04-25T08:23:29;15.83;68.46
77247;SHT35;66279;42.820;23.374;2023-04-25T08:25:54;15.83;69.36
77247;SHT35;66279;42.820;23.374;2023-04-25T08:28:20;15.79;68.29
77247;SHT35;66279;42.820;23.374;2023-04-25T08:30:45;15.81;68.61
77247;SHT35;66279;42.820;23.374;2023-04-25T08:33:11;15.90;69.88
77247;SHT35;66279;42.820;23.374;2023-04-25T08:35:36;15.92;68.72
77247;SHT35;66279;42.820;23.374;2023-04-25T08:38:02;15.97;69.37
77247;SHT35;66279;42.820;23.374;2023-04-25T08:40:28;15.93;68.45
77247;SHT35;66279;42.820;23.374;2023-04-25T08:42:57;15.89;67.45
77247;SHT35;66279;42.820;23.374;2023-04-25T08:45:23;15.90;65.35
77247;SHT35;66279;42.820;23.374;2023-04-25T08:47:51;15.93;65.86
77247;SHT35;66279;42.820;23.374;2023-04-25T08:50:17;16.06;66.27
77247;SHT35;66279;42.820;23.374;2023-04-25T11:47:45;20.50;42.74
77247;SHT35;66279;42.820;23.374;2023-04-25T12:09:52;21.19;46.14
77247;SHT35;66279;42.820;23.374;2023-04-25T12:14:51;21.18;45.83
77247;SHT35;66279;42.820;23.374;2023-04-25T13:42:16;16.18;66.26
77247;SHT35;66279;42.820;23.374;2023-04-25T14:28:36;16.99;62.03
77247;SHT35;66279;42.820;23.374;2023-04-25T17:50:05;11.75;77.29
77247;SHT35;66279;42.820;23.374;2023-04-25T17:52:31;11.68;78.29
77247;SHT35;66279;42.820;23.374;2023-04-25T17:54:57;11.59;78.11
77247;SHT35;66279;42.820;23.374;2023-04-25T17:57:22;11.52;78.05
77247;SHT35;66279;42.820;23.374;2023-04-25T17:59:49;11.39;78.65
77247;SHT35;66279;42.820;23.374;2023-04-25T18:02:15;11.25;78.76
77247;SHT35;66279;42.820;23.374;2023-04-25T18:04:40;11.20;78.27
77247;SHT35;66279;42.820;23.374;2023-04-25T18:07:07;11.13;79.58
77247;SHT35;66279;42.820;23.374;2023-04-25T18:09:33;11.14;79.03
77247;SHT35;66279;42.820;23.374;2023-04-25T18:12:00;11.18;79.54
77247;SHT35;66279;42.820;23.374;2023-04-25T18:14:26;11.21;78.55
77247;SHT35;66279;42.820;23.374;2023-04-25T18:16:52;11.22;79.07
77247;SHT35;66279;42.820;23.374;2023-04-25T18:19:18;11.25;79.40
77247;SHT35;66279;42.820;23.374;2023-04-25T18:21:53;11.21;78.95
77247;SHT35;66279;42.820;23.374;2023-04-25T18:24:20;11.24;78.55
77247;SHT35;66279;42.820;23.374;2023-04-25T18:26:47;11.21;79.78
77247;SHT35;66279;42.820;23.374;2023-04-25T18:29:13;11.24;78.51
77247;SHT35;66279;42.820;23.374;2023-04-25T18:31:40;11.13;78.65
77247;SHT35;66279;42.820;23.374;2023-04-25T18:34:07;11.08;79.06
77247;SHT35;66279;42.820;23.374;2023-04-25T18:36:33;10.97;78.69
77247;SHT35;66279;42.820;23.374;2023-04-25T18:38:58;10.85;78.35
77247;SHT35;66279;42.820;23.374;2023-04-25T18:41:27;10.80;78.73
77247;SHT35;66279;42.820;23.374;2023-04-25T18:43:53;10.76;78.90
77247;SHT35;66279;42.820;23.374;2023-04-25T18:46:20;10.70;78.94
77247;SHT35;66279;42.820;23.374;2023-04-25T18:48:49;10.70;79.09
77247;SHT35;66279;42.820;23.374;2023-04-25T18:51:15;10.67;78.58
77247;SHT35;66279;42.820;23.374;2023-04-25T18:53:41;10.67;78.40
77247;SHT35;66279;42.820;23.374;2023-04-25T18:56:07;10.62;78.50
77247;SHT35;66279;42.820;23.374;2023-04-25T18:58:33;10.62;80.46
77247;SHT35;66279;42.820;23.374;2023-04-25T19:00:59;10.43;79.94
77247;SHT35;66279;42.820;23.374;2023-04-25T19:03:28;10.43;80.53
77247;SHT35;66279;42.820;23.374;2023-04-25T19:05:54;10.43;80.94
77247;SHT35;66279;42.820;23.374;2023-04-25T19:08:20;10.41;80.33
77247;SHT35;66279;42.820;23.374;2023-04-25T19:10:48;10.31;79.66
77247;SHT35;66279;42.820;23.374;2023-04-25T19:13:23;10.19;79.43
77247;SHT35;66279;42.820;23.374;2023-04-25T19:15:49;10.16;81.60
77247;SHT35;66279;42.820;23.374;2023-04-25T19:18:14;10.11;81.11
77247;SHT35;66279;42.820;23.374;2023-04-25T19:20:40;10.11;81.46
77247;SHT35;66279;42.820;23.374;2023-04-25T19:23:06;10.05;81.99
77247;SHT35;66279;42.820;23.374;2023-04-25T19:25:32;10.11;81.69
77247;SHT35;66279;42.820;23.374;2023-04-25T19:27:58;10.02;82.56
77247;SHT35;66279;42.820;23.374;2023-04-25T19:30:25;10.05;81.46
77247;SHT35;66279;42.820;23.374;2023-04-25T19:32:51;10.08;81.18
77247;SHT35;66279;42.820;23.374;2023-04-25T19:35:16;10.11;82.39
77247;SHT35;66279;42.820;23.374;2023-04-25T19:37:42;10.08;82.19
77247;SHT35;66279;42.820;23.374;2023-04-25T19:40:11;10.04;82.58
77247;SHT35;66279;42.820;23.374;2023-04-25T19:42:37;9.98;83.41
77247;SHT35;66279;42.820;23.374;2023-04-25T19:45:02;9.87;83.72
77247;SHT35;66279;42.820;23.374;2023-04-25T19:47:28;9.90;82.28
77247;SHT35;66279;42.820;23.374;2023-04-25T19:49:53;9.87;83.54
77247;SHT35;66279;42.820;23.374;2023-04-25T19:52:19;9.80;83.20
77247;SHT35;66279;42.820;23.374;2023-04-25T19:54:45;9.80;83.04
77247;SHT35;66279;42.820;23.374;2023-04-25T19:57:11;9.75;83.00
77247;SHT35;66279;42.820;23.374;2023-04-25T19:59:36;9.69;82.58
77247;SHT35;66279;42.820;23.374;2023-04-25T20:02:02;9.53;83.55
77247;SHT35;66279;42.820;23.374;2023-04-25T20:04:31;9.42;83.73
77247;SHT35;66279;42.820;23.374;2023-04-25T20:06:56;9.29;84.89
77247;SHT35;66279;42.820;23.374;2023-04-25T20:09:22;9.25;84.60
77247;SHT35;66279;42.820;23.374;2023-04-25T20:11:48;9.22;84.55
77247;SHT35;66279;42.820;23.374;2023-04-25T20:14:13;9.22;83.87
77247;SHT35;66279;42.820;23.374;2023-04-25T20:16:40;9.22;84.20
77247;SHT35;66279;42.820;23.374;2023-04-25T20:19:05;9.20;84.36
77247;SHT35;66279;42.820;23.374;2023-04-25T20:21:32;9.26;83.43
77247;SHT35;66279;42.820;23.374;2023-04-25T20:24:01;9.22;83.43
77247;SHT35;66279;42.820;23.374;2023-04-25T20:26:27;9.14;84.16
77247;SHT35;66279;42.820;23.374;2023-04-25T20:28:53;9.06;84.63
77247;SHT35;66279;42.820;23.374;2023-04-25T20:31:19;9.04;85.42
77247;SHT35;66279;42.820;23.374;2023-04-25T20:33:45;8.95;85.90
77247;SHT35;66279;42.820;23.374;2023-04-25T20:36:11;8.99;84.95
77247;SHT35;66279;42.820;23.374;2023-04-25T20:38:37;8.89;85.34
77247;SHT35;66279;42.820;23.374;2023-04-25T20:41:02;8.81;85.13
77247;SHT35;66279;42.820;23.374;2023-04-25T20:43:28;8.72;85.58
77247;SHT35;66279;42.820;23.374;2023-04-25T20:45:54;8.68;85.71
77247;SHT35;66279;42.820;23.374;2023-04-25T20:48:20;8.65;86.18
77247;SHT35;66279;42.820;23.374;2023-04-25T20:50:45;8.65;85.94
77247;SHT35;66279;42.820;23.374;2023-04-25T20:53:11;8.58;86.16
77247;SHT35;66279;42.820;23.374;2023-04-25T20:55:36;8.51;86.21
77247;SHT35;66279;42.820;23.374;2023-04-25T20:58:02;8.48;86.20
77247;SHT35;66279;42.820;23.374;2023-04-25T21:00:28;8.50;86.58
77247;SHT35;66279;42.820;23.374;2023-04-25T21:02:54;8.50;86.70
77247;SHT35;66279;42.820;23.374;2023-04-25T21:05:21;8.50;86.53
77247;SHT35;66279;42.820;23.374;2023-04-25T21:07:50;8.47;86.07
77247;SHT35;66279;42.820;23.374;2023-04-25T21:10:19;8.34;87.82
77247;SHT35;66279;42.820;23.374;2023-04-25T21:12:45;8.32;87.60
